aviador You're here:

KMQJ Decoded Metar

in
Report Time2017-07-24 14:28:00
UTC Time2017-07-24 14:50:02
Flight Rules vfr VFR
Wind360° at 07 kt
W.Decomp.*RWY 34: 6.6 kt HW 2.4 kt RCW
RWY 07: 2.4 kt HW 6.6 kt LCW
Visibility9999 m
Phenomena:N/A
Clouds:Scattered 013 Hf
Expected CloudBase > 1,600 ft AGL from Temp-Dew spread
CeilingNone
Temp23°C
Dew Point19°C (78% RH)
QNH1015 hPa
Raw Report
METAR KMQJ 241428Z AUTO 36007KT 10SM SCT013 23/19 A2997 RMK AO1=

Extra information for KMQJ:More info

Social comments